sensor_id;sensor_type;location;lat;lon;timestamp;pressure;altitude;pressure_sealevel;temperature;humidity
10948;BME280;5526;42.070;24.752;2023-09-08T00:01:19;99402.50;;;21.93;77.56
10948;BME280;5526;42.070;24.752;2023-09-08T00:03:46;99400.00;;;21.88;77.31
10948;BME280;5526;42.070;24.752;2023-09-08T00:06:13;99397.63;;;21.86;78.09
10948;BME280;5526;42.070;24.752;2023-09-08T00:08:42;99395.41;;;21.88;77.85
10948;BME280;5526;42.070;24.752;2023-09-08T00:11:09;99392.41;;;21.81;78.67
10948;BME280;5526;42.070;24.752;2023-09-08T00:13:36;99391.34;;;21.82;78.44
10948;BME280;5526;42.070;24.752;2023-09-08T00:16:05;99391.16;;;21.79;78.88
10948;BME280;5526;42.070;24.752;2023-09-08T00:18:33;99396.38;;;21.75;79.31
10948;BME280;5526;42.070;24.752;2023-09-08T00:21:00;99393.53;;;21.72;79.29
10948;BME280;5526;42.070;24.752;2023-09-08T00:23:27;99397.81;;;21.73;78.36
10948;BME280;5526;42.070;24.752;2023-09-08T00:25:56;99394.91;;;21.69;78.65
10948;BME280;5526;42.070;24.752;2023-09-08T00:28:24;99393.22;;;21.65;78.03
10948;BME280;5526;42.070;24.752;2023-09-08T00:30:51;99393.97;;;21.65;76.61
10948;BME280;5526;42.070;24.752;2023-09-08T00:33:18;99394.47;;;21.67;76.61
10948;BME280;5526;42.070;24.752;2023-09-08T00:35:48;99390.53;;;21.65;77.00
10948;BME280;5526;42.070;24.752;2023-09-08T00:38:15;99395.72;;;21.61;77.24
10948;BME280;5526;42.070;24.752;2023-09-08T00:40:50;99393.03;;;21.61;76.61
10948;BME280;5526;42.070;24.752;2023-09-08T00:43:28;99393.19;;;21.56;76.70
10948;BME280;5526;42.070;24.752;2023-09-08T00:45:55;99397.59;;;21.52;76.75
10948;BME280;5526;42.070;24.752;2023-09-08T00:48:24;99399.78;;;21.50;76.19
10948;BME280;5526;42.070;24.752;2023-09-08T00:50:51;99392.25;;;21.52;75.48
10948;BME280;5526;42.070;24.752;2023-09-08T00:53:19;99404.84;;;21.52;75.69
10948;BME280;5526;42.070;24.752;2023-09-08T00:55:46;99403.41;;;21.54;75.50
10948;BME280;5526;42.070;24.752;2023-09-08T00:58:14;99405.16;;;21.50;75.91
10948;BME280;5526;42.070;24.752;2023-09-08T01:00:43;99396.66;;;21.31;78.87
10948;BME280;5526;42.070;24.752;2023-09-08T01:03:11;99397.91;;;21.25;80.48
10948;BME280;5526;42.070;24.752;2023-09-08T01:05:38;99393.47;;;21.21;81.86
10948;BME280;5526;42.070;24.752;2023-09-08T01:08:06;99390.03;;;21.20;82.73
10948;BME280;5526;42.070;24.752;2023-09-08T01:10:33;99384.06;;;21.23;83.34
10948;BME280;5526;42.070;24.752;2023-09-08T01:13:03;99384.06;;;21.23;83.85
10948;BME280;5526;42.070;24.752;2023-09-08T01:15:30;99383.09;;;21.19;84.81
10948;BME280;5526;42.070;24.752;2023-09-08T01:17:58;99383.09;;;21.19;84.31
10948;BME280;5526;42.070;24.752;2023-09-08T01:20:28;99375.69;;;21.16;85.66
10948;BME280;5526;42.070;24.752;2023-09-08T01:23:11;99372.19;;;21.07;87.51
10948;BME280;5526;42.070;24.752;2023-09-08T01:25:46;99375.03;;;21.02;88.22
10948;BME280;5526;42.070;24.752;2023-09-08T01:28:17;99367.47;;;20.96;88.90
10948;BME280;5526;42.070;24.752;2023-09-08T01:30:46;99370.25;;;20.91;88.67
10948;BME280;5526;42.070;24.752;2023-09-08T01:33:14;99372.66;;;20.92;87.92
10948;BME280;5526;42.070;24.752;2023-09-08T01:35:42;99365.69;;;20.91;87.01
10948;BME280;5526;42.070;24.752;2023-09-08T01:38:09;99360.97;;;20.88;88.81
10948;BME280;5526;42.070;24.752;2023-09-08T01:40:37;99361.88;;;20.83;88.87
10948;BME280;5526;42.070;24.752;2023-09-08T01:43:06;99371.34;;;20.81;89.58
10948;BME280;5526;42.070;24.752;2023-09-08T01:45:33;99371.47;;;20.76;87.57
10948;BME280;5526;42.070;24.752;2023-09-08T01:48:00;99368.72;;;20.59;87.18
10948;BME280;5526;42.070;24.752;2023-09-08T01:50:27;99373.56;;;20.48;87.74
10948;BME280;5526;42.070;24.752;2023-09-08T01:52:54;99378.25;;;20.43;87.95
10948;BME280;5526;42.070;24.752;2023-09-08T01:55:21;99383.59;;;20.43;89.20
10948;BME280;5526;42.070;24.752;2023-09-08T01:57:48;99377.47;;;20.42;89.48
10948;BME280;5526;42.070;24.752;2023-09-08T02:00:17;99380.63;;;20.44;89.74
10948;BME280;5526;42.070;24.752;2023-09-08T02:02:44;99380.78;;;20.39;90.79
10948;BME280;5526;42.070;24.752;2023-09-08T02:05:11;99374.28;;;20.32;90.61
10948;BME280;5526;42.070;24.752;2023-09-08T02:07:38;99370.47;;;20.24;91.87
10948;BME280;5526;42.070;24.752;2023-09-08T02:10:06;99382.06;;;20.20;93.37
10948;BME280;5526;42.070;24.752;2023-09-08T02:12:33;99380.34;;;20.15;95.31
10948;BME280;5526;42.070;24.752;2023-09-08T02:15:00;99375.28;;;20.14;97.14
10948;BME280;5526;42.070;24.752;2023-09-08T02:17:28;99377.66;;;20.15;99.08
10948;BME280;5526;42.070;24.752;2023-09-08T02:19:55;99378.94;;;20.18;100.00
10948;BME280;5526;42.070;24.752;2023-09-08T02:22:22;99368.25;;;20.18;100.00
10948;BME280;5526;42.070;24.752;2023-09-08T02:24:49;99365.38;;;20.14;100.00
10948;BME280;5526;42.070;24.752;2023-09-08T02:27:17;99368.06;;;20.14;100.00
10948;BME280;5526;42.070;24.752;2023-09-08T02:29:44;99365.88;;;20.16;100.00
10948;BME280;5526;42.070;24.752;2023-09-08T02:32:11;99358.31;;;20.18;100.00
10948;BME280;5526;42.070;24.752;2023-09-08T02:34:41;99360.53;;;20.16;100.00
10948;BME280;5526;42.070;24.752;2023-09-08T02:37:08;99359.25;;;20.14;100.00
10948;BME280;5526;42.070;24.752;2023-09-08T02:39:35;99361.94;;;20.14;100.00
10948;BME280;5526;42.070;24.752;2023-09-08T02:42:03;99370.34;;;20.07;100.00
10948;BME280;5526;42.070;24.752;2023-09-08T02:44:32;99358.06;;;20.06;100.00
10948;BME280;5526;42.070;24.752;2023-09-08T02:46:59;99355.91;;;20.08;100.00
10948;BME280;5526;42.070;24.752;2023-09-08T02:49:26;99355.63;;;20.10;100.00
10948;BME280;5526;42.070;24.752;2023-09-08T02:51:54;99351.06;;;20.10;100.00
10948;BME280;5526;42.070;24.752;2023-09-08T02:54:21;99347.59;;;20.10;100.00
10948;BME280;5526;42.070;24.752;2023-09-08T02:56:49;99349.19;;;20.11;100.00
10948;BME280;5526;42.070;24.752;2023-09-08T02:59:16;99349.97;;;20.11;100.00
10948;BME280;5526;42.070;24.752;2023-09-08T03:01:43;99353.72;;;20.10;100.00
10948;BME280;5526;42.070;24.752;2023-09-08T03:04:10;99353.72;;;20.10;100.00
10948;BME280;5526;42.070;24.752;2023-09-08T03:06:37;99357.19;;;20.11;100.00
10948;BME280;5526;42.070;24.752;2023-09-08T03:09:06;99361.13;;;20.13;100.00
10948;BME280;5526;42.070;24.752;2023-09-08T03:11:33;99354.22;;;20.12;100.00
10948;BME280;5526;42.070;24.752;2023-09-08T03:14:03;99356.44;;;20.19;100.00
10948;BME280;5526;42.070;24.752;2023-09-08T03:16:30;99356.16;;;20.20;100.00
10948;BME280;5526;42.070;24.752;2023-09-08T03:18:57;99353.63;;;20.24;100.00
10948;BME280;5526;42.070;24.752;2023-09-08T03:21:24;99354.59;;;20.28;100.00
10948;BME280;5526;42.070;24.752;2023-09-08T03:23:51;99352.88;;;20.32;100.00
10948;BME280;5526;42.070;24.752;2023-09-08T03:26:20;99356.22;;;20.37;100.00
10948;BME280;5526;42.070;24.752;2023-09-08T03:28:47;99350.09;;;20.37;100.00
10948;BME280;5526;42.070;24.752;2023-09-08T03:31:14;99359.19;;;20.36;100.00
10948;BME280;5526;42.070;24.752;2023-09-08T03:33:41;99354.94;;;20.35;100.00
10948;BME280;5526;42.070;24.752;2023-09-08T03:36:08;99357.31;;;20.36;100.00
10948;BME280;5526;42.070;24.752;2023-09-08T03:38:35;99350.56;;;20.39;100.00
10948;BME280;5526;42.070;24.752;2023-09-08T03:41:03;99363.63;;;20.40;100.00
10948;BME280;5526;42.070;24.752;2023-09-08T03:43:32;99362.81;;;20.40;99.57
10948;BME280;5526;42.070;24.752;2023-09-08T03:45:59;99371.81;;;20.44;99.71
10948;BME280;5526;42.070;24.752;2023-09-08T03:48:26;99369.94;;;20.44;99.87
10948;BME280;5526;42.070;24.752;2023-09-08T03:50:53;99368.84;;;20.45;99.71
10948;BME280;5526;42.070;24.752;2023-09-08T03:53:20;99369.31;;;20.47;99.03
10948;BME280;5526;42.070;24.752;2023-09-08T03:55:47;99367.25;;;20.44;99.03
10948;BME280;5526;42.070;24.752;2023-09-08T03:58:14;99370.75;;;20.45;99.98
10948;BME280;5526;42.070;24.752;2023-09-08T04:00:43;99376.19;;;20.40;99.92
10948;BME280;5526;42.070;24.752;2023-09-08T04:03:11;99375.53;;;20.34;99.51
10948;BME280;5526;42.070;24.752;2023-09-08T04:05:38;99370.53;;;20.33;99.29
10948;BME280;5526;42.070;24.752;2023-09-08T04:08:05;99377.75;;;20.32;99.70
10948;BME280;5526;42.070;24.752;2023-09-08T04:10:32;99381.03;;;20.29;99.93
10948;BME280;5526;42.070;24.752;2023-09-08T04:13:00;99379.16;;;20.30;100.00
10948;BME280;5526;42.070;24.752;2023-09-08T04:15:28;99379.63;;;20.32;100.00
10948;BME280;5526;42.070;24.752;2023-09-08T04:17:57;99380.41;;;20.32;100.00
10948;BME280;5526;42.070;24.752;2023-09-08T04:20:24;99378.84;;;20.31;100.00
10948;BME280;5526;42.070;24.752;2023-09-08T04:22:51;99381.34;;;20.28;100.00
10948;BME280;5526;42.070;24.752;2023-09-08T04:25:18;99381.81;;;20.30;100.00
10948;BME280;5526;42.070;24.752;2023-09-08T04:27:45;99381.03;;;20.29;100.00
10948;BME280;5526;42.070;24.752;2023-09-08T04:30:13;99379.81;;;20.35;100.00
10948;BME280;5526;42.070;24.752;2023-09-08T04:32:40;99392.06;;;20.36;100.00
10948;BME280;5526;42.070;24.752;2023-09-08T04:35:09;99385.63;;;20.37;100.00
10948;BME280;5526;42.070;24.752;2023-09-08T04:37:36;99397.88;;;20.38;98.93
10948;BME280;5526;42.070;24.752;2023-09-08T04:40:05;99396.97;;;20.43;98.05
10948;BME280;5526;42.070;24.752;2023-09-08T04:42:32;99401.88;;;20.49;98.09
10948;BME280;5526;42.070;24.752;2023-09-08T04:45:00;99398.44;;;20.49;98.08
10948;BME280;5526;42.070;24.752;2023-09-08T04:47:27;99397.78;;;20.52;97.86
10948;BME280;5526;42.070;24.752;2023-09-08T04:49:54;99395.78;;;20.57;97.53
10948;BME280;5526;42.070;24.752;2023-09-08T04:52:22;99398.97;;;20.68;96.90
10948;BME280;5526;42.070;24.752;2023-09-08T04:54:49;99403.09;;;20.74;96.87
10948;BME280;5526;42.070;24.752;2023-09-08T04:57:16;99399.34;;;20.83;96.29
10948;BME280;5526;42.070;24.752;2023-09-08T04:59:43;99401.28;;;20.92;96.58
10948;BME280;5526;42.070;24.752;2023-09-08T05:02:11;99406.03;;;21.03;95.81
10948;BME280;5526;42.070;24.752;2023-09-08T05:04:38;99400.41;;;21.13;95.95
10948;BME280;5526;42.070;24.752;2023-09-08T05:07:05;99401.38;;;21.26;95.99
10948;BME280;5526;42.070;24.752;2023-09-08T05:09:34;99402.47;;;21.33;95.63
10948;BME280;5526;42.070;24.752;2023-09-08T05:12:01;99410.22;;;21.43;95.65
10948;BME280;5526;42.070;24.752;2023-09-08T05:14:28;99402.34;;;21.55;94.68
10948;BME280;5526;42.070;24.752;2023-09-08T05:16:55;99409.72;;;21.67;94.53
10948;BME280;5526;42.070;24.752;2023-09-08T05:19:22;99407.09;;;21.75;93.77
10948;BME280;5526;42.070;24.752;2023-09-08T05:21:50;99405.19;;;21.84;93.51
10948;BME280;5526;42.070;24.752;2023-09-08T05:24:17;99404.56;;;21.96;93.98
10948;BME280;5526;42.070;24.752;2023-09-08T05:26:47;99407.06;;;22.09;94.96
10948;BME280;5526;42.070;24.752;2023-09-08T05:29:15;99413.00;;;22.23;95.78
10948;BME280;5526;42.070;24.752;2023-09-08T05:31:42;99412.38;;;22.35;94.68
10948;BME280;5526;42.070;24.752;2023-09-08T05:34:09;99412.19;;;22.48;94.42
10948;BME280;5526;42.070;24.752;2023-09-08T05:36:36;99416.88;;;22.60;94.40
10948;BME280;5526;42.070;24.752;2023-09-08T05:39:04;99415.75;;;22.69;93.79
10948;BME280;5526;42.070;24.752;2023-09-08T05:41:31;99422.31;;;22.80;93.72
10948;BME280;5526;42.070;24.752;2023-09-08T05:44:00;99415.81;;;22.90;93.68
10948;BME280;5526;42.070;24.752;2023-09-08T05:46:27;99421.19;;;23.10;94.32
10948;BME280;5526;42.070;24.752;2023-09-08T05:48:54;99425.19;;;23.33;93.84
10948;BME280;5526;42.070;24.752;2023-09-08T05:51:21;99427.09;;;23.53;93.63
10948;BME280;5526;42.070;24.752;2023-09-08T05:53:49;99420.75;;;23.58;93.67
10948;BME280;5526;42.070;24.752;2023-09-08T05:56:18;99432.22;;;23.87;92.66
10948;BME280;5526;42.070;24.752;2023-09-08T05:58:45;99440.28;;;24.08;92.00
10948;BME280;5526;42.070;24.752;2023-09-08T06:01:15;99437.75;;;24.23;90.53
10948;BME280;5526;42.070;24.752;2023-09-08T06:03:42;99424.56;;;24.30;90.44
10948;BME280;5526;42.070;24.752;2023-09-08T06:06:09;99428.13;;;24.22;87.83
10948;BME280;5526;42.070;24.752;2023-09-08T06:08:36;99430.69;;;24.19;87.37
10948;BME280;5526;42.070;24.752;2023-09-08T06:11:03;99441.28;;;24.36;86.12
10948;BME280;5526;42.070;24.752;2023-09-08T06:13:30;99439.06;;;24.38;82.83
10948;BME280;5526;42.070;24.752;2023-09-08T06:15:57;99444.25;;;24.55;81.18
10948;BME280;5526;42.070;24.752;2023-09-08T06:18:28;99439.84;;;24.50;78.90
10948;BME280;5526;42.070;24.752;2023-09-08T06:20:55;99450.84;;;24.58;78.34
10948;BME280;5526;42.070;24.752;2023-09-08T06:23:22;99442.13;;;24.61;79.33
10948;BME280;5526;42.070;24.752;2023-09-08T06:25:49;99454.50;;;24.98;78.29
10948;BME280;5526;42.070;24.752;2023-09-08T06:28:16;99454.50;;;25.10;76.67
10948;BME280;5526;42.070;24.752;2023-09-08T06:30:44;99455.63;;;24.97;77.95
10948;BME280;5526;42.070;24.752;2023-09-08T06:33:11;99463.81;;;25.00;78.23
10948;BME280;5526;42.070;24.752;2023-09-08T06:35:40;99463.78;;;24.64;79.63
10948;BME280;5526;42.070;24.752;2023-09-08T06:38:07;99472.13;;;24.83;79.21
10948;BME280;5526;42.070;24.752;2023-09-08T06:40:34;99469.34;;;24.92;79.56
10948;BME280;5526;42.070;24.752;2023-09-08T06:43:02;99470.16;;;25.28;78.16
10948;BME280;5526;42.070;24.752;2023-09-08T06:45:29;99473.72;;;25.44;77.68
10948;BME280;5526;42.070;24.752;2023-09-08T06:47:56;99476.28;;;25.41;78.82
10948;BME280;5526;42.070;24.752;2023-09-08T06:50:25;99470.69;;;25.34;79.14
10948;BME280;5526;42.070;24.752;2023-09-08T06:52:56;99482.00;;;25.63;78.22
10948;BME280;5526;42.070;24.752;2023-09-08T06:55:23;99472.34;;;25.50;78.71
10948;BME280;5526;42.070;24.752;2023-09-08T06:57:50;99476.06;;;25.97;76.36
10948;BME280;5526;42.070;24.752;2023-09-08T07:00:17;99484.66;;;26.15;74.32
10948;BME280;5526;42.070;24.752;2023-09-08T07:02:46;99476.38;;;26.35;72.85
10948;BME280;5526;42.070;24.752;2023-09-08T07:05:15;99478.78;;;26.25;72.86
10948;BME280;5526;42.070;24.752;2023-09-08T07:07:42;99468.88;;;26.72;72.83
10948;BME280;5526;42.070;24.752;2023-09-08T07:10:15;99488.13;;;26.86;69.67
10948;BME280;5526;42.070;24.752;2023-09-08T07:12:42;99478.28;;;26.78;67.87
10948;BME280;5526;42.070;24.752;2023-09-08T07:15:09;99477.94;;;26.95;65.25
10948;BME280;5526;42.070;24.752;2023-09-08T07:17:36;99479.66;;;26.87;62.32
10948;BME280;5526;42.070;24.752;2023-09-08T07:20:04;99474.44;;;26.94;60.44
10948;BME280;5526;42.070;24.752;2023-09-08T07:22:32;99481.94;;;26.85;61.94
10948;BME280;5526;42.070;24.752;2023-09-08T07:24:59;99476.19;;;26.71;58.05
10948;BME280;5526;42.070;24.752;2023-09-08T07:27:27;99471.34;;;26.49;56.53
10948;BME280;5526;42.070;24.752;2023-09-08T07:29:54;99481.97;;;26.42;56.84
10948;BME280;5526;42.070;24.752;2023-09-08T07:32:21;99473.00;;;26.54;57.55
10948;BME280;5526;42.070;24.752;2023-09-08T07:34:50;99465.00;;;26.57;58.71
10948;BME280;5526;42.070;24.752;2023-09-08T07:37:20;99471.34;;;26.49;59.37
10948;BME280;5526;42.070;24.752;2023-09-08T07:39:48;99462.34;;;26.45;60.15
10948;BME280;5526;42.070;24.752;2023-09-08T07:42:15;99455.72;;;26.27;61.22
10948;BME280;5526;42.070;24.752;2023-09-08T07:44:44;99455.31;;;26.56;61.22
10948;BME280;5526;42.070;24.752;2023-09-08T07:47:12;99464.44;;;26.64;59.18
10948;BME280;5526;42.070;24.752;2023-09-08T07:49:39;99457.19;;;26.83;58.49
10948;BME280;5526;42.070;24.752;2023-09-08T07:52:06;99462.59;;;27.30;57.38
10948;BME280;5526;42.070;24.752;2023-09-08T07:54:33;99447.75;;;27.58;54.89
10948;BME280;5526;42.070;24.752;2023-09-08T07:57:00;99454.00;;;27.43;54.79
10948;BME280;5526;42.070;24.752;2023-09-08T07:59:27;99449.56;;;27.20;53.87
10948;BME280;5526;42.070;24.752;2023-09-08T08:01:56;99444.78;;;27.13;54.76
10948;BME280;5526;42.070;24.752;2023-09-08T08:04:23;99452.53;;;27.46;54.56
10948;BME280;5526;42.070;24.752;2023-09-08T08:06:50;99456.00;;;27.46;54.24
10948;BME280;5526;42.070;24.752;2023-09-08T08:09:17;99455.47;;;27.22;54.78
10948;BME280;5526;42.070;24.752;2023-09-08T08:11:44;99453.72;;;27.48;54.36
10948;BME280;5526;42.070;24.752;2023-09-08T08:14:11;99454.63;;;27.71;54.52
10948;BME280;5526;42.070;24.752;2023-09-08T08:16:39;99446.13;;;27.54;55.40
10948;BME280;5526;42.070;24.752;2023-09-08T08:19:08;99455.31;;;27.68;53.60
10948;BME280;5526;42.070;24.752;2023-09-08T08:21:35;99449.44;;;28.01;53.08
10948;BME280;5526;42.070;24.752;2023-09-08T08:24:03;99449.28;;;28.13;52.24
10948;BME280;5526;42.070;24.752;2023-09-08T08:26:30;99433.91;;;28.17;50.10
10948;BME280;5526;42.070;24.752;2023-09-08T08:28:58;99439.13;;;28.48;50.70
10948;BME280;5526;42.070;24.752;2023-09-08T08:31:25;99434.88;;;28.70;49.89
10948;BME280;5526;42.070;24.752;2023-09-08T08:33:52;99433.00;;;28.51;50.42
10948;BME280;5526;42.070;24.752;2023-09-08T08:36:21;99439.84;;;28.45;48.49
10948;BME280;5526;42.070;24.752;2023-09-08T08:38:48;99441.91;;;28.52;49.27
10948;BME280;5526;42.070;24.752;2023-09-08T08:41:15;99433.41;;;28.76;48.47
10948;BME280;5526;42.070;24.752;2023-09-08T08:43:43;99426.59;;;28.40;49.13
10948;BME280;5526;42.070;24.752;2023-09-08T08:46:12;99433.50;;;28.38;49.56
10948;BME280;5526;42.070;24.752;2023-09-08T08:48:40;99426.16;;;28.38;49.90
10948;BME280;5526;42.070;24.752;2023-09-08T08:51:08;99423.44;;;28.38;50.32
10948;BME280;5526;42.070;24.752;2023-09-08T08:53:39;99431.34;;;28.24;50.26
10948;BME280;5526;42.070;24.752;2023-09-08T08:56:07;99430.75;;;28.15;50.58
10948;BME280;5526;42.070;24.752;2023-09-08T08:58:36;99435.28;;;28.30;50.54
10948;BME280;5526;42.070;24.752;2023-09-08T09:01:04;99432.25;;;28.54;50.50
10948;BME280;5526;42.070;24.752;2023-09-08T09:03:31;99432.25;;;28.54;49.61
10948;BME280;5526;42.070;24.752;2023-09-08T09:06:00;99430.97;;;28.67;48.86
10948;BME280;5526;42.070;24.752;2023-09-08T09:08:29;99415.59;;;28.52;48.98
10948;BME280;5526;42.070;24.752;2023-09-08T09:10:59;99428.84;;;28.38;49.21
10948;BME280;5526;42.070;24.752;2023-09-08T09:13:26;99423.66;;;28.07;49.73
10948;BME280;5526;42.070;24.752;2023-09-08T09:15:58;99424.22;;;28.16;50.75
10948;BME280;5526;42.070;24.752;2023-09-08T09:18:25;99421.34;;;28.47;49.50
10948;BME280;5526;42.070;24.752;2023-09-08T09:20:56;99423.94;;;28.89;48.14
10948;BME280;5526;42.070;24.752;2023-09-08T09:23:27;99423.81;;;29.04;48.03
10948;BME280;5526;42.070;24.752;2023-09-08T09:25:55;99426.31;;;29.16;47.21
10948;BME280;5526;42.070;24.752;2023-09-08T09:28:23;99419.13;;;29.01;45.66
10948;BME280;5526;42.070;24.752;2023-09-08T09:30:52;99418.19;;;28.68;46.68
10948;BME280;5526;42.070;24.752;2023-09-08T09:33:21;99414.97;;;28.40;47.30
10948;BME280;5526;42.070;24.752;2023-09-08T09:35:50;99413.38;;;28.58;46.00
10948;BME280;5526;42.070;24.752;2023-09-08T09:38:18;99399.56;;;28.21;46.85
10948;BME280;5526;42.070;24.752;2023-09-08T09:40:47;99400.69;;;28.20;47.23
10948;BME280;5526;42.070;24.752;2023-09-08T09:43:15;99400.81;;;28.69;45.41
10948;BME280;5526;42.070;24.752;2023-09-08T09:45:44;99403.69;;;29.05;44.76
10948;BME280;5526;42.070;24.752;2023-09-08T09:48:12;99395.34;;;29.17;44.42
10948;BME280;5526;42.070;24.752;2023-09-08T09:50:40;99396.84;;;29.41;42.92
10948;BME280;5526;42.070;24.752;2023-09-08T09:53:09;99392.28;;;29.78;41.57
10948;BME280;5526;42.070;24.752;2023-09-08T09:55:39;99383.47;;;29.84;41.11
10948;BME280;5526;42.070;24.752;2023-09-08T09:58:06;99388.38;;;29.75;40.91
10948;BME280;5526;42.070;24.752;2023-09-08T10:00:34;99388.22;;;29.94;40.71
10948;BME280;5526;42.070;24.752;2023-09-08T10:03:04;99379.44;;;30.08;41.02
10948;BME280;5526;42.070;24.752;2023-09-08T10:05:31;99380.31;;;30.15;39.99
10948;BME280;5526;42.070;24.752;2023-09-08T10:07:59;99371.13;;;30.30;39.80
10948;BME280;5526;42.070;24.752;2023-09-08T10:10:27;99367.44;;;30.52;38.00
10948;BME280;5526;42.070;24.752;2023-09-08T10:13:02;99357.38;;;30.56;38.22
10948;BME280;5526;42.070;24.752;2023-09-08T10:15:30;99360.53;;;30.58;38.73
10948;BME280;5526;42.070;24.752;2023-09-08T10:17:59;99355.41;;;30.53;37.75
10948;BME280;5526;42.070;24.752;2023-09-08T10:20:33;99350.31;;;30.05;40.02
10948;BME280;5526;42.070;24.752;2023-09-08T10:23:06;99362.25;;;29.97;40.03
10948;BME280;5526;42.070;24.752;2023-09-08T10:25:38;99357.06;;;29.52;40.23
10948;BME280;5526;42.070;24.752;2023-09-08T10:28:07;99345.13;;;29.89;39.71
10948;BME280;5526;42.070;24.752;2023-09-08T10:30:35;99344.75;;;29.91;38.90
10948;BME280;5526;42.070;24.752;2023-09-08T10:33:03;99343.84;;;29.80;39.11
10948;BME280;5526;42.070;24.752;2023-09-08T10:35:33;99334.09;;;29.75;39.37
10948;BME280;5526;42.070;24.752;2023-09-08T10:38:22;99328.38;;;29.51;40.19
10948;BME280;5526;42.070;24.752;2023-09-08T10:40:50;99322.41;;;30.08;39.55
10948;BME280;5526;42.070;24.752;2023-09-08T10:43:18;99330.66;;;30.15;39.79
10948;BME280;5526;42.070;24.752;2023-09-08T10:45:46;99332.41;;;30.37;39.21
10948;BME280;5526;42.070;24.752;2023-09-08T10:48:14;99332.78;;;30.35;37.92
10948;BME280;5526;42.070;24.752;2023-09-08T10:50:43;99330.19;;;30.53;37.77
10948;BME280;5526;42.070;24.752;2023-09-08T10:53:15;99324.13;;;30.19;38.99
10948;BME280;5526;42.070;24.752;2023-09-08T10:55:44;99332.81;;;30.02;39.56
10948;BME280;5526;42.070;24.752;2023-09-08T10:58:20;99317.88;;;30.15;39.43
10948;BME280;5526;42.070;24.752;2023-09-08T11:00:51;99316.72;;;30.16;39.43
10948;BME280;5526;42.070;24.752;2023-09-08T11:03:27;99308.81;;;30.48;39.33
10948;BME280;5526;42.070;24.752;2023-09-08T11:05:56;99302.84;;;30.28;39.37
10948;BME280;5526;42.070;24.752;2023-09-08T11:08:24;99306.81;;;30.38;39.25
10948;BME280;5526;42.070;24.752;2023-09-08T11:10:51;99304.22;;;30.12;38.53
10948;BME280;5526;42.070;24.752;2023-09-08T11:13:18;99302.72;;;30.14;38.53
10948;BME280;5526;42.070;24.752;2023-09-08T11:15:46;99299.41;;;30.35;37.36
10948;BME280;5526;42.070;24.752;2023-09-08T11:18:13;99297.28;;;30.65;37.15
10948;BME280;5526;42.070;24.752;2023-09-08T11:20:40;99289.97;;;30.72;36.15
10948;BME280;5526;42.070;24.752;2023-09-08T11:23:10;99293.66;;;30.43;37.48
10948;BME280;5526;42.070;24.752;2023-09-08T11:25:37;99292.03;;;30.35;37.76
10948;BME280;5526;42.070;24.752;2023-09-08T11:28:05;99290.50;;;30.38;37.78
10948;BME280;5526;42.070;24.752;2023-09-08T11:30:33;99288.53;;;30.38;38.30
10948;BME280;5526;42.070;24.752;2023-09-08T11:33:01;99278.91;;;30.48;38.27
10948;BME280;5526;42.070;24.752;2023-09-08T11:35:31;99277.66;;;30.31;37.05
10948;BME280;5526;42.070;24.752;2023-09-08T11:37:59;99278.34;;;30.21;38.19
10948;BME280;5526;42.070;24.752;2023-09-08T11:40:32;99276.78;;;30.20;38.74
10948;BME280;5526;42.070;24.752;2023-09-08T11:43:00;99280.44;;;29.98;38.30
10948;BME280;5526;42.070;24.752;2023-09-08T11:45:27;99264.72;;;29.78;39.30
10948;BME280;5526;42.070;24.752;2023-09-08T11:47:54;99271.03;;;29.52;39.39
10948;BME280;5526;42.070;24.752;2023-09-08T11:50:22;99257.06;;;29.50;40.21
10948;BME280;5526;42.070;24.752;2023-09-08T11:52:51;99260.13;;;29.45;40.93
10948;BME280;5526;42.070;24.752;2023-09-08T11:55:19;99245.34;;;29.43;40.75
10948;BME280;5526;42.070;24.752;2023-09-08T11:57:49;99254.09;;;29.59;40.82
10948;BME280;5526;42.070;24.752;2023-09-08T12:00:18;99252.50;;;29.58;39.57
10948;BME280;5526;42.070;24.752;2023-09-08T12:02:48;99242.84;;;29.60;39.48
10948;BME280;5526;42.070;24.752;2023-09-08T12:05:21;99240.13;;;29.60;39.60
10948;BME280;5526;42.070;24.752;2023-09-08T12:07:49;99236.56;;;29.53;39.44
10948;BME280;5526;42.070;24.752;2023-09-08T12:10:16;99229.94;;;29.50;41.01
10948;BME280;5526;42.070;24.752;2023-09-08T12:12:46;99228.84;;;29.55;39.56
10948;BME280;5526;42.070;24.752;2023-09-08T12:15:33;99230.81;;;29.58;39.53
10948;BME280;5526;42.070;24.752;2023-09-08T12:18:01;99218.75;;;29.55;39.11
10948;BME280;5526;42.070;24.752;2023-09-08T12:20:29;99232.06;;;29.67;38.80
10948;BME280;5526;42.070;24.752;2023-09-08T12:22:59;99228.34;;;29.82;39.16
10948;BME280;5526;42.070;24.752;2023-09-08T12:25:27;99234.56;;;29.83;38.11
10948;BME280;5526;42.070;24.752;2023-09-08T12:27:57;99224.88;;;29.85;38.23
10948;BME280;5526;42.070;24.752;2023-09-08T12:30:25;99220.94;;;29.79;37.63
10948;BME280;5526;42.070;24.752;2023-09-08T12:32:58;99211.09;;;29.61;37.72
10948;BME280;5526;42.070;24.752;2023-09-08T12:35:25;99213.31;;;29.52;37.40
10948;BME280;5526;42.070;24.752;2023-09-08T12:37:57;99217.75;;;29.67;39.52
10948;BME280;5526;42.070;24.752;2023-09-08T12:40:25;99201.19;;;29.79;39.62
10948;BME280;5526;42.070;24.752;2023-09-08T12:42:52;99204.22;;;30.21;39.26
10948;BME280;5526;42.070;24.752;2023-09-08T12:45:20;99198.53;;;30.40;38.44
10948;BME280;5526;42.070;24.752;2023-09-08T12:47:48;99197.72;;;30.32;38.45
10948;BME280;5526;42.070;24.752;2023-09-08T12:50:17;99191.44;;;30.25;38.55
10948;BME280;5526;42.070;24.752;2023-09-08T12:52:44;99198.41;;;30.19;40.00
10948;BME280;5526;42.070;24.752;2023-09-08T12:55:11;99194.94;;;30.22;37.85
10948;BME280;5526;42.070;24.752;2023-09-08T12:57:39;99198.41;;;30.22;37.59
10948;BME280;5526;42.070;24.752;2023-09-08T13:00:07;99197.63;;;30.18;40.64
10948;BME280;5526;42.070;24.752;2023-09-08T13:02:34;99193.41;;;30.24;40.21
10948;BME280;5526;42.070;24.752;2023-09-08T13:05:01;99187.22;;;30.27;39.58